createdAt,value
2023-06-05T00:00:28.332Z,10.28
2023-06-05T00:01:28.269Z,10.37
2023-06-05T00:02:28.388Z,10.34
2023-06-05T00:03:28.766Z,10.36
2023-06-05T00:04:28.265Z,10.40
2023-06-05T00:05:28.259Z,10.43
2023-06-05T00:06:28.223Z,10.43
2023-06-05T00:07:28.211Z,10.44
2023-06-05T00:08:28.225Z,10.46
2023-06-05T00:09:28.154Z,10.46
2023-06-05T00:10:28.200Z,10.43
2023-06-05T00:11:28.170Z,10.37
2023-06-05T00:12:28.141Z,10.42
2023-06-05T00:13:28.135Z,10.44
2023-06-05T00:14:28.153Z,10.42
2023-06-05T00:15:28.087Z,10.37
2023-06-05T00:16:28.096Z,10.32
2023-06-05T00:17:28.141Z,10.26
2023-06-05T00:18:28.056Z,10.21
2023-06-05T00:19:28.045Z,10.14
2023-06-05T00:20:28.057Z,10.10
2023-06-05T00:21:28.963Z,10.18
2023-06-05T00:22:28.035Z,10.22
2023-06-05T00:23:28.122Z,10.22
2023-06-05T00:24:27.978Z,10.21
2023-06-05T00:25:28.054Z,10.18
2023-06-05T00:26:28.917Z,10.19
2023-06-05T00:27:27.933Z,10.17
2023-06-05T00:28:27.949Z,10.12
2023-06-05T00:29:27.965Z,10.09
2023-06-05T00:30:27.916Z,10.01
2023-06-05T00:31:27.933Z,9.99
2023-06-05T00:32:27.910Z,9.96
2023-06-05T00:33:27.889Z,9.88
2023-06-05T00:34:27.824Z,9.82
2023-06-05T00:35:27.892Z,9.76
2023-06-05T00:36:27.822Z,9.76
2023-06-05T00:37:27.809Z,9.78
2023-06-05T00:38:27.794Z,9.81
2023-06-05T00:39:27.784Z,9.85
2023-06-05T00:40:27.748Z,9.85
2023-06-05T00:41:27.815Z,9.79
2023-06-05T00:42:27.709Z,9.82
2023-06-05T00:43:27.751Z,9.83
2023-06-05T00:44:27.711Z,9.85
2023-06-05T00:45:27.704Z,9.86
2023-06-05T00:46:27.706Z,9.86
2023-06-05T00:47:27.749Z,9.94
2023-06-05T00:48:27.670Z,9.97
2023-06-05T00:49:28.605Z,10.00
2023-06-05T00:50:27.632Z,10.03
2023-06-05T00:51:27.616Z,10.03
2023-06-05T00:52:27.577Z,10.01
2023-06-05T00:53:27.643Z,10.01
2023-06-05T00:54:27.575Z,9.97
2023-06-05T00:55:27.598Z,9.99
2023-06-05T00:56:27.545Z,9.99
2023-06-05T00:57:27.564Z,10.06
2023-06-05T00:58:27.523Z,10.07
2023-06-05T00:59:27.538Z,10.10
2023-06-05T01:00:27.470Z,10.10
2023-06-05T01:01:27.532Z,10.12
2023-06-05T01:02:27.522Z,10.12
2023-06-05T01:03:27.580Z,10.07
2023-06-05T01:04:27.414Z,10.03
2023-06-05T01:05:27.568Z,10.00
2023-06-05T01:06:27.396Z,9.99
2023-06-05T01:07:27.424Z,9.96
2023-06-05T01:08:27.386Z,9.89
2023-06-05T01:09:27.370Z,9.85
2023-06-05T01:10:27.389Z,9.82
2023-06-05T01:11:27.375Z,9.79
2023-06-05T01:12:27.310Z,9.81
2023-06-05T01:13:27.346Z,9.78
2023-06-05T01:14:27.281Z,9.73
2023-06-05T01:15:27.323Z,9.76
2023-06-05T01:16:27.300Z,9.78
2023-06-05T01:17:27.321Z,9.81
2023-06-05T01:18:27.223Z,9.81
2023-06-05T01:19:27.262Z,9.82
2023-06-05T01:20:27.236Z,9.91
2023-06-05T01:21:27.206Z,9.91
2023-06-05T01:22:27.198Z,9.88
2023-06-05T01:23:27.238Z,9.83
2023-06-05T01:24:27.142Z,9.82
2023-06-05T01:25:27.178Z,9.85
2023-06-05T01:26:27.139Z,9.82
2023-06-05T01:27:27.155Z,9.81
2023-06-05T01:28:27.154Z,9.79
2023-06-05T01:29:27.120Z,9.76
2023-06-05T01:30:27.086Z,9.67
2023-06-05T01:31:27.843Z,9.68
2023-06-05T01:32:27.087Z,9.75
2023-06-05T01:33:27.079Z,9.76
2023-06-05T01:34:27.003Z,9.82
2023-06-05T01:35:27.071Z,9.82
2023-06-05T01:36:27.002Z,9.79
2023-06-05T01:37:27.007Z,9.79
2023-06-05T01:38:26.986Z,9.78
2023-06-05T01:39:26.961Z,9.75
2023-06-05T01:40:26.935Z,9.78
2023-06-05T01:41:26.988Z,9.81
2023-06-05T01:42:26.891Z,9.83
2023-06-05T01:43:26.928Z,9.81
2023-06-05T01:44:26.896Z,9.78
2023-06-05T01:45:26.876Z,9.76
2023-06-05T01:46:26.973Z,9.76
2023-06-05T01:47:26.903Z,9.73
2023-06-05T01:48:26.807Z,9.70
2023-06-05T01:49:26.849Z,9.67
2023-06-05T01:50:26.809Z,9.67
2023-06-05T01:51:26.796Z,9.64
2023-06-05T01:52:26.752Z,9.63
2023-06-05T01:53:27.006Z,9.60
2023-06-05T01:54:27.687Z,9.56
2023-06-05T01:55:27.443Z,9.56
2023-06-05T01:56:26.727Z,9.52
2023-06-05T01:57:26.713Z,9.48
2023-06-05T01:58:26.696Z,9.46
2023-06-05T01:59:26.713Z,9.45
2023-06-05T02:00:26.649Z,9.46
2023-06-05T02:01:26.723Z,9.48
2023-06-05T02:02:26.645Z,9.48
2023-06-05T02:03:26.893Z,9.48
2023-06-05T02:04:26.621Z,9.49
2023-06-05T02:05:26.618Z,9.52
2023-06-05T02:06:26.566Z,9.50
2023-06-05T02:07:26.605Z,9.53
2023-06-05T02:08:26.580Z,9.56
2023-06-05T02:09:26.554Z,9.50
2023-06-05T02:10:26.533Z,9.48
2023-06-05T02:11:26.554Z,9.46
2023-06-05T02:12:26.587Z,9.50
2023-06-05T02:13:26.529Z,9.48
2023-06-05T02:14:26.452Z,9.42
2023-06-05T02:15:26.492Z,9.32
2023-06-05T02:16:26.473Z,9.27
2023-06-05T02:17:27.439Z,9.30
2023-06-05T02:18:26.423Z,9.28
2023-06-05T02:19:26.408Z,9.24
2023-06-05T02:20:26.367Z,9.23
2023-06-05T02:21:26.413Z,9.20
2023-06-05T02:22:26.374Z,9.05
2023-06-05T02:23:26.428Z,8.96
2023-06-05T02:24:26.314Z,8.93
2023-06-05T02:25:26.353Z,8.93
2023-06-05T02:26:26.290Z,8.87
2023-06-05T02:27:26.321Z,8.88
2023-06-05T02:28:26.282Z,8.87
2023-06-05T02:29:27.276Z,8.93
2023-06-05T02:30:26.259Z,8.94
2023-06-05T02:31:26.249Z,8.88
2023-06-05T02:32:26.297Z,8.84
2023-06-05T02:33:26.239Z,8.84
2023-06-05T02:34:26.257Z,8.83
2023-06-05T02:35:26.281Z,8.79
2023-06-05T02:36:26.173Z,8.78
2023-06-05T02:37:26.159Z,8.79
2023-06-05T02:38:26.140Z,8.79
2023-06-05T02:39:26.139Z,8.76
2023-06-05T02:40:26.161Z,8.72
2023-06-05T02:41:26.167Z,8.73
2023-06-05T02:42:26.061Z,8.72
2023-06-05T02:43:26.103Z,8.72
2023-06-05T02:44:26.779Z,8.71
2023-06-05T02:45:26.063Z,8.72
2023-06-05T02:46:26.108Z,8.71
2023-06-05T02:47:26.080Z,8.73
2023-06-05T02:48:25.978Z,8.72
2023-06-05T02:49:26.019Z,8.69
2023-06-05T02:50:25.976Z,8.66
2023-06-05T02:51:25.993Z,8.66
2023-06-05T02:52:25.961Z,8.62
2023-06-05T02:53:25.972Z,8.62
2023-06-05T02:54:25.911Z,8.63
2023-06-05T02:55:25.970Z,8.68
2023-06-05T02:56:25.904Z,8.72
2023-06-05T02:57:26.575Z,8.66
2023-06-05T02:58:26.765Z,8.55
2023-06-05T02:59:25.970Z,8.51
2023-06-05T03:00:26.638Z,8.48
2023-06-05T03:01:25.925Z,8.47
2023-06-05T03:02:25.804Z,8.45
2023-06-05T03:03:25.907Z,8.50
2023-06-05T03:04:28.499Z,8.51
2023-06-05T03:05:26.596Z,8.54
2023-06-05T03:06:25.770Z,8.53
2023-06-05T03:07:25.759Z,8.51
2023-06-05T03:08:25.706Z,8.51
2023-06-05T03:09:25.739Z,8.51
2023-06-05T03:10:25.703Z,8.48
2023-06-05T03:11:25.727Z,8.44
2023-06-05T03:12:25.650Z,8.36
2023-06-05T03:13:25.689Z,8.32
2023-06-05T03:14:25.628Z,8.32
2023-06-05T03:15:25.663Z,8.35
2023-06-05T03:16:25.698Z,8.33
2023-06-05T03:17:25.694Z,8.30
2023-06-05T03:18:25.604Z,8.26
2023-06-05T03:19:25.579Z,8.21
2023-06-05T03:20:25.541Z,8.20
2023-06-05T03:21:25.589Z,8.15
2023-06-05T03:22:25.514Z,8.07
2023-06-05T03:23:25.596Z,8.02
2023-06-05T03:24:25.514Z,8.00
2023-06-05T03:25:25.499Z,7.97
2023-06-05T03:26:25.463Z,7.96
2023-06-05T03:27:25.504Z,7.94
2023-06-05T03:28:25.475Z,7.94
2023-06-05T03:29:25.480Z,7.92
2023-06-05T03:30:25.433Z,7.89
2023-06-05T03:31:25.429Z,7.89
2023-06-05T03:32:25.383Z,7.87
2023-06-05T03:33:25.458Z,7.81
2023-06-05T03:34:25.356Z,7.79
2023-06-05T03:35:26.324Z,7.75
2023-06-05T03:36:25.373Z,7.69
2023-06-05T03:37:25.363Z,7.60
2023-06-05T03:38:25.329Z,7.59
2023-06-05T03:39:25.323Z,7.58
2023-06-05T03:40:25.304Z,7.59
2023-06-05T03:41:25.422Z,7.58
2023-06-05T03:42:25.254Z,7.56
2023-06-05T03:43:25.287Z,7.55
2023-06-05T03:44:25.248Z,7.56
2023-06-05T03:45:25.239Z,7.56
2023-06-05T03:46:26.212Z,7.58
2023-06-05T03:47:25.279Z,7.59
2023-06-05T03:48:25.176Z,7.59
2023-06-05T03:49:25.202Z,7.60
2023-06-05T03:50:25.845Z,7.62
2023-06-05T03:51:25.180Z,7.69
2023-06-05T03:52:25.141Z,7.77
2023-06-05T03:53:25.173Z,7.79
2023-06-05T03:54:25.109Z,7.84
2023-06-05T03:55:25.097Z,7.89
2023-06-05T03:56:25.059Z,7.90
2023-06-05T03:57:25.113Z,7.89
2023-06-05T03:58:26.017Z,7.85
2023-06-05T03:59:25.076Z,7.84
2023-06-05T04:00:25.027Z,7.85
2023-06-05T04:01:25.061Z,7.84
2023-06-05T04:02:25.170Z,7.82
2023-06-05T04:03:25.073Z,7.82
2023-06-05T04:04:24.991Z,7.85
2023-06-05T04:05:25.000Z,7.90
2023-06-05T04:06:24.958Z,7.93
2023-06-05T04:07:24.942Z,7.93
2023-06-05T04:08:24.902Z,7.92
2023-06-05T04:09:24.939Z,7.94
2023-06-05T04:10:24.884Z,7.96
2023-06-05T04:11:24.961Z,7.97
2023-06-05T04:12:24.874Z,7.97
2023-06-05T04:13:24.863Z,7.97
2023-06-05T04:14:24.826Z,7.97
2023-06-05T04:15:24.867Z,7.97
2023-06-05T04:16:24.840Z,8.03
2023-06-05T04:17:24.859Z,8.04
2023-06-05T04:18:24.795Z,8.04
2023-06-05T04:19:24.776Z,8.10
2023-06-05T04:20:24.746Z,8.14
2023-06-05T04:21:24.777Z,8.20
2023-06-05T04:22:24.714Z,8.26
2023-06-05T04:23:24.836Z,8.29
2023-06-05T04:24:24.729Z,8.32
2023-06-05T04:25:24.696Z,8.35
2023-06-05T04:26:24.716Z,8.37
2023-06-05T04:27:25.400Z,8.40
2023-06-05T04:28:24.630Z,8.48
2023-06-05T04:29:24.704Z,8.55
2023-06-05T04:30:24.631Z,8.60
2023-06-05T04:31:24.720Z,8.63
2023-06-05T04:32:24.620Z,8.68
2023-06-05T04:33:24.606Z,8.71
2023-06-05T04:34:24.550Z,8.75
2023-06-05T04:35:24.604Z,8.79
2023-06-05T04:36:24.544Z,8.84
2023-06-05T04:37:24.530Z,8.88
2023-06-05T04:38:24.520Z,8.93
2023-06-05T04:39:24.499Z,8.96
2023-06-05T04:40:24.493Z,8.99
2023-06-05T04:41:24.526Z,9.01
2023-06-05T04:42:24.437Z,9.05
2023-06-05T04:43:24.477Z,9.09
2023-06-05T04:44:24.438Z,9.09
2023-06-05T04:45:24.437Z,9.12
2023-06-05T04:46:24.454Z,9.18
2023-06-05T04:47:24.440Z,9.27
2023-06-05T04:48:24.407Z,9.31
2023-06-05T04:49:24.363Z,9.39
2023-06-05T04:50:24.388Z,9.48
2023-06-05T04:51:24.317Z,9.56
2023-06-05T04:52:24.338Z,9.60
2023-06-05T04:53:24.339Z,9.63
2023-06-05T04:54:24.294Z,9.67
2023-06-05T04:55:24.291Z,9.76
2023-06-05T04:56:24.303Z,9.83
2023-06-05T04:57:24.245Z,9.89
2023-06-05T04:58:24.273Z,9.97
2023-06-05T04:59:24.254Z,10.06
2023-06-05T05:00:24.218Z,10.14
2023-06-05T05:01:24.232Z,10.22
2023-06-05T05:02:24.241Z,10.30
2023-06-05T05:03:24.160Z,10.39
2023-06-05T05:04:24.198Z,10.46
2023-06-05T05:05:24.203Z,10.52
2023-06-05T05:06:24.134Z,10.58
2023-06-05T05:07:24.127Z,10.63
2023-06-05T05:08:24.135Z,10.74
2023-06-05T05:09:24.129Z,10.81
2023-06-05T05:10:24.103Z,10.88
2023-06-05T05:11:24.147Z,10.96
2023-06-05T05:12:24.049Z,11.03
2023-06-05T05:13:24.051Z,11.14
2023-06-05T05:14:24.021Z,11.17
2023-06-05T05:15:24.019Z,11.25
2023-06-05T05:16:24.034Z,11.29
2023-06-05T05:17:24.017Z,11.34
2023-06-05T05:18:23.980Z,11.44
2023-06-05T05:19:23.956Z,11.53
2023-06-05T05:20:23.983Z,11.53
2023-06-05T05:21:23.910Z,11.57
2023-06-05T05:22:23.941Z,11.62
2023-06-05T05:23:23.924Z,11.70
2023-06-05T05:24:24.587Z,11.72
2023-06-05T05:25:23.878Z,11.78
2023-06-05T05:26:23.875Z,11.83
2023-06-05T05:27:23.846Z,11.90
2023-06-05T05:28:23.861Z,11.97
2023-06-05T05:29:23.822Z,12.06
2023-06-05T05:30:23.832Z,12.13
2023-06-05T05:31:23.788Z,12.19
2023-06-05T05:32:23.809Z,12.15
2023-06-05T05:33:23.767Z,12.21
2023-06-05T05:34:23.781Z,12.24
2023-06-05T05:35:23.751Z,12.31
2023-06-05T05:36:23.726Z,12.38
2023-06-05T05:37:23.719Z,12.41
2023-06-05T05:38:23.704Z,12.44
2023-06-05T05:39:23.687Z,12.45
2023-06-05T05:40:23.713Z,12.51
2023-06-05T05:41:23.672Z,12.56
2023-06-05T05:42:23.675Z,12.60
2023-06-05T05:43:24.561Z,12.66
2023-06-05T05:44:23.618Z,12.74
2023-06-05T05:45:23.620Z,12.82
2023-06-05T05:46:24.321Z,12.81
2023-06-05T05:47:24.670Z,12.88
2023-06-05T05:48:23.589Z,12.87
2023-06-05T05:49:23.527Z,12.99
2023-06-05T05:50:23.560Z,13.06
2023-06-05T05:51:23.516Z,13.18
2023-06-05T05:52:23.554Z,13.25
2023-06-05T05:53:23.539Z,13.32
2023-06-05T05:54:23.479Z,13.43
2023-06-05T05:55:23.468Z,13.52
2023-06-05T05:56:23.479Z,13.62
2023-06-05T05:57:23.412Z,13.73
2023-06-05T05:58:23.455Z,13.71
2023-06-05T05:59:23.444Z,13.69
2023-06-05T06:00:23.413Z,13.73
2023-06-05T06:01:23.397Z,13.81
2023-06-05T06:02:23.493Z,13.74
2023-06-05T06:03:23.376Z,13.73
2023-06-05T06:04:23.414Z,13.77
2023-06-05T06:05:23.340Z,13.88
2023-06-05T06:06:23.324Z,14.01
2023-06-05T06:07:23.302Z,14.16
2023-06-05T06:08:23.335Z,14.21
2023-06-05T06:09:23.250Z,14.32
2023-06-05T06:10:23.297Z,14.32
2023-06-05T06:11:23.252Z,14.35
2023-06-05T06:12:23.232Z,14.42
2023-06-05T06:13:23.232Z,14.50
2023-06-05T06:14:23.205Z,14.47
2023-06-05T06:15:23.218Z,14.49
2023-06-05T06:16:23.256Z,14.54
2023-06-05T06:17:23.191Z,14.65
2023-06-05T06:18:23.204Z,14.75
2023-06-05T06:19:23.116Z,14.86
2023-06-05T06:20:23.133Z,14.72
2023-06-05T06:21:23.116Z,14.80
2023-06-05T06:22:23.128Z,14.88
2023-06-05T06:23:24.151Z,15.05
2023-06-05T06:24:23.078Z,15.19
2023-06-05T06:25:23.061Z,15.23
2023-06-05T06:26:23.045Z,15.31
2023-06-05T06:27:34.802Z,15.43
2023-06-05T06:28:24.078Z,15.49
2023-06-05T06:29:22.988Z,15.64
2023-06-05T06:30:23.021Z,15.79
2023-06-05T06:31:23.015Z,15.81
2023-06-05T06:32:23.020Z,15.72
2023-06-05T06:33:22.951Z,15.75
2023-06-05T06:34:22.976Z,15.76
2023-06-05T06:35:22.932Z,15.59
2023-06-05T06:36:22.948Z,15.60
2023-06-05T06:37:22.910Z,15.67
2023-06-05T06:38:22.885Z,15.79
2023-06-05T06:39:22.876Z,15.89
2023-06-05T06:40:22.920Z,15.85
2023-06-05T06:41:22.821Z,15.92
2023-06-05T06:42:22.848Z,16.03
2023-06-05T06:43:22.790Z,16.03
2023-06-05T06:44:22.799Z,16.11
2023-06-05T06:45:22.831Z,16.25
2023-06-05T06:46:22.810Z,16.34
2023-06-05T06:47:22.882Z,16.41
2023-06-05T06:48:22.840Z,16.55
2023-06-05T06:49:22.701Z,16.53
2023-06-05T06:50:22.748Z,16.50
2023-06-05T06:51:22.685Z,16.59
2023-06-05T06:52:25.692Z,16.67
2023-06-05T06:53:22.676Z,16.73
2023-06-05T06:54:22.661Z,16.78
2023-06-05T06:55:22.641Z,16.89
2023-06-05T06:56:22.659Z,16.98
2023-06-05T06:57:22.602Z,17.15
2023-06-05T06:58:22.665Z,17.36
2023-06-05T06:59:22.595Z,17.57
2023-06-05T07:00:22.591Z,17.74
2023-06-05T07:01:22.650Z,17.87
2023-06-05T07:02:22.592Z,17.88
2023-06-05T07:03:22.570Z,17.95
2023-06-05T07:04:22.589Z,18.07
2023-06-05T07:05:23.402Z,18.00
2023-06-05T07:06:22.530Z,17.64
2023-06-05T07:07:22.470Z,17.59
2023-06-05T07:08:22.490Z,17.47
2023-06-05T07:09:22.462Z,17.36
2023-06-05T07:10:22.612Z,17.44
2023-06-05T07:11:22.410Z,17.63
2023-06-05T07:12:22.420Z,17.69
2023-06-05T07:13:22.559Z,17.85
2023-06-05T07:14:22.476Z,17.99
2023-06-05T07:15:22.397Z,18.07
2023-06-05T07:16:22.529Z,18.22
2023-06-05T07:17:22.568Z,18.10
2023-06-05T07:18:22.379Z,17.46
2023-06-05T07:19:22.315Z,17.29
2023-06-05T07:20:22.312Z,17.38
2023-06-05T07:21:22.317Z,17.53
2023-06-05T07:22:22.323Z,17.51
2023-06-05T07:23:22.370Z,17.35
2023-06-05T07:24:22.302Z,17.47
2023-06-05T07:25:22.272Z,17.71
2023-06-05T07:26:22.241Z,17.63
2023-06-05T07:27:22.220Z,17.51
2023-06-05T07:28:22.268Z,17.73
2023-06-05T07:29:22.175Z,17.89
2023-06-05T07:30:22.258Z,18.18
2023-06-05T07:31:22.167Z,18.44
2023-06-05T07:32:22.218Z,18.76
2023-06-05T07:33:29.826Z,18.91
2023-06-05T07:34:23.172Z,19.08
2023-06-05T07:35:22.108Z,19.23
2023-06-05T07:36:22.168Z,19.33
2023-06-05T07:37:22.051Z,19.51
2023-06-05T07:38:22.104Z,19.60
2023-06-05T07:39:22.053Z,19.72
2023-06-05T07:40:22.067Z,19.90
2023-06-05T07:41:22.036Z,19.75
2023-06-05T07:42:22.039Z,19.40
2023-06-05T07:43:21.979Z,19.20
2023-06-05T07:44:21.994Z,18.83
2023-06-05T07:45:21.986Z,18.52
2023-06-05T07:46:22.003Z,18.67
2023-06-05T07:47:22.048Z,18.94
2023-06-05T07:48:21.957Z,19.15
2023-06-05T07:49:21.909Z,19.13
2023-06-05T07:50:21.934Z,19.29
2023-06-05T07:51:21.884Z,19.60
2023-06-05T07:52:21.913Z,19.66
2023-06-05T07:53:21.870Z,19.31
2023-06-05T07:54:21.857Z,19.40
2023-06-05T07:55:21.834Z,19.70
2023-06-05T07:56:21.846Z,20.02
2023-06-05T07:57:21.787Z,20.35
2023-06-05T07:58:21.955Z,20.39
2023-06-05T07:59:21.771Z,20.20
2023-06-05T08:00:21.765Z,20.42
2023-06-05T08:01:21.756Z,20.59
2023-06-05T08:02:21.792Z,20.84
2023-06-05T08:03:21.921Z,20.90
2023-06-05T08:04:21.806Z,21.01
2023-06-05T08:05:21.671Z,20.99
2023-06-05T08:06:21.832Z,21.16
2023-06-05T08:07:21.645Z,20.81
2023-06-05T08:08:21.669Z,20.69
2023-06-05T08:09:21.719Z,20.59
2023-06-05T08:10:21.681Z,20.79
2023-06-05T08:11:21.618Z,20.89
2023-06-05T08:12:21.641Z,21.19
2023-06-05T08:13:21.569Z,21.26
2023-06-05T08:14:21.596Z,21.48
2023-06-05T08:15:21.568Z,21.39
2023-06-05T08:16:21.708Z,21.42
2023-06-05T08:17:21.569Z,21.66
2023-06-05T08:18:21.551Z,21.90
2023-06-05T08:19:21.503Z,22.12
2023-06-05T08:20:21.502Z,21.75
2023-06-05T08:21:21.532Z,21.60
2023-06-05T08:22:21.492Z,21.76
2023-06-05T08:23:21.506Z,22.02
2023-06-05T08:24:21.472Z,22.37
2023-06-05T08:25:21.410Z,22.52
2023-06-05T08:26:21.470Z,22.77
2023-06-05T08:27:21.379Z,22.56
2023-06-05T08:28:21.428Z,22.62
2023-06-05T08:29:21.385Z,22.54
2023-06-05T08:30:21.405Z,22.54
2023-06-05T08:31:21.376Z,22.83
2023-06-05T08:32:21.383Z,23.05
2023-06-05T08:33:21.353Z,23.34
2023-06-05T08:34:21.342Z,23.42
2023-06-05T08:35:22.057Z,23.46
2023-06-05T08:36:21.302Z,23.11
2023-06-05T08:37:21.252Z,22.87
2023-06-05T08:38:21.276Z,22.39
2023-06-05T08:39:21.258Z,22.49
2023-06-05T08:40:21.263Z,22.65
2023-06-05T08:41:21.213Z,22.68
2023-06-05T08:42:22.154Z,23.04
2023-06-05T08:43:21.188Z,23.34
2023-06-05T08:44:21.896Z,23.42
2023-06-05T08:45:21.133Z,23.71
2023-06-05T08:46:21.434Z,23.95
2023-06-05T08:47:21.162Z,24.12
2023-06-05T08:48:21.138Z,24.02
2023-06-05T08:49:21.095Z,24.22
2023-06-05T08:50:21.112Z,24.47
2023-06-05T08:51:21.051Z,24.64
2023-06-05T08:52:21.092Z,24.92
2023-06-05T08:53:21.982Z,25.16
2023-06-05T08:54:21.038Z,24.92
2023-06-05T08:55:21.032Z,24.08
2023-06-05T08:56:21.038Z,24.00
2023-06-05T08:57:20.965Z,23.80
2023-06-05T08:58:21.059Z,23.98
2023-06-05T08:59:20.943Z,24.10
2023-06-05T09:00:20.954Z,24.39
2023-06-05T09:01:21.040Z,24.73
2023-06-05T09:02:20.898Z,24.54
2023-06-05T09:03:20.958Z,24.80
2023-06-05T09:04:21.017Z,25.05
2023-06-05T09:05:20.934Z,25.39
2023-06-05T09:06:20.880Z,25.72
2023-06-05T09:07:20.864Z,25.99
2023-06-05T09:08:20.821Z,26.06
2023-06-05T09:09:20.875Z,26.27
2023-06-05T09:10:20.828Z,26.39
2023-06-05T09:11:20.839Z,26.44
2023-06-05T09:12:20.800Z,26.44
2023-06-05T09:13:20.784Z,26.35
2023-06-05T09:14:20.774Z,26.31
2023-06-05T09:15:20.765Z,25.87
2023-06-05T09:16:20.875Z,25.25
2023-06-05T09:17:20.757Z,24.90
2023-06-05T09:18:20.720Z,24.45
2023-06-05T09:19:20.701Z,24.37
2023-06-05T09:20:20.665Z,24.44
2023-06-05T09:21:20.703Z,24.61
2023-06-05T09:22:20.666Z,24.53
2023-06-05T09:24:20.870Z,25.05
2023-06-05T09:25:20.623Z,25.07
2023-06-05T09:26:21.340Z,25.30
2023-06-05T09:27:20.592Z,24.92
2023-06-05T09:28:20.587Z,24.88
2023-06-05T09:29:20.600Z,25.25
2023-06-05T09:30:20.529Z,25.68
2023-06-05T09:31:20.603Z,26.27
2023-06-05T09:32:20.540Z,26.72
2023-06-05T09:33:20.510Z,26.95
2023-06-05T09:34:20.511Z,27.06
2023-06-05T09:35:20.575Z,26.11
2023-06-05T09:36:20.477Z,25.02
2023-06-05T09:37:20.463Z,24.79
2023-06-05T09:38:20.456Z,24.61
2023-06-05T09:39:20.434Z,24.64
2023-06-05T09:40:20.438Z,25.30
2023-06-05T09:41:20.439Z,25.89
2023-06-05T09:42:20.369Z,26.46
2023-06-05T09:43:20.414Z,26.99
2023-06-05T09:44:21.338Z,27.28
2023-06-05T09:45:20.357Z,27.64
2023-06-05T09:46:20.424Z,27.76
2023-06-05T09:47:20.332Z,27.31
2023-06-05T09:48:20.328Z,27.33
2023-06-05T09:49:20.324Z,27.51
2023-06-05T09:50:20.360Z,27.57
2023-06-05T09:51:20.299Z,27.71
2023-06-05T09:52:20.268Z,27.86
2023-06-05T09:53:20.278Z,28.16
2023-06-05T09:54:20.204Z,28.33
2023-06-05T09:55:20.248Z,28.66
2023-06-05T09:56:20.219Z,28.22
2023-06-05T09:57:20.203Z,28.07
2023-06-05T09:58:20.219Z,27.89
2023-06-05T09:59:20.161Z,27.66
2023-06-05T10:00:20.348Z,27.67
2023-06-05T10:01:20.221Z,28.01
2023-06-05T10:02:20.238Z,28.28
2023-06-05T10:03:20.134Z,28.59
2023-06-05T10:04:20.188Z,28.58
2023-06-05T10:05:21.879Z,28.32
2023-06-05T10:06:20.562Z,27.73
2023-06-05T10:07:20.050Z,27.80
2023-06-05T10:08:20.010Z,27.64
2023-06-05T10:09:20.198Z,28.10
2023-06-05T10:10:20.070Z,28.40
2023-06-05T10:11:20.021Z,28.72
2023-06-05T10:12:20.086Z,28.78
2023-06-05T10:13:20.074Z,29.18
2023-06-05T10:14:19.955Z,28.73
2023-06-05T10:15:19.944Z,27.58
2023-06-05T10:16:26.304Z,27.24
2023-06-05T10:17:21.021Z,27.67
2023-06-05T10:18:19.964Z,28.03
2023-06-05T10:19:19.915Z,28.58
2023-06-05T10:20:19.890Z,28.88
2023-06-05T10:21:20.567Z,29.29
2023-06-05T10:22:19.857Z,29.72
2023-06-05T10:23:19.889Z,28.96
2023-06-05T10:24:19.826Z,28.68
2023-06-05T10:25:19.818Z,28.95
2023-06-05T10:26:19.799Z,29.28
2023-06-05T10:27:20.494Z,29.50
2023-06-05T10:28:19.772Z,29.78
2023-06-05T10:29:19.782Z,30.03
2023-06-05T10:30:19.721Z,29.84
2023-06-05T10:31:19.810Z,29.71
2023-06-05T10:32:19.722Z,29.66
2023-06-05T10:33:19.708Z,29.87
2023-06-05T10:34:19.787Z,29.97
2023-06-05T10:35:19.679Z,30.21
2023-06-05T10:36:19.645Z,30.38
2023-06-05T10:37:19.684Z,30.40
2023-06-05T10:38:19.674Z,30.37
2023-06-05T10:39:19.641Z,30.11
2023-06-05T10:40:19.709Z,29.82
2023-06-05T10:41:19.632Z,29.84
2023-06-05T10:42:19.559Z,29.72
2023-06-05T10:43:19.599Z,29.82
2023-06-05T10:44:19.565Z,29.89
2023-06-05T10:45:19.546Z,30.18
2023-06-05T10:46:19.614Z,30.19
2023-06-05T10:47:19.551Z,28.62
2023-06-05T10:48:19.475Z,27.89
2023-06-05T10:49:19.522Z,28.29
2023-06-05T10:50:19.446Z,28.82
2023-06-05T10:51:19.496Z,29.28
2023-06-05T10:52:19.493Z,29.19
2023-06-05T10:53:19.434Z,29.08
2023-06-05T10:54:19.396Z,29.41
2023-06-05T10:55:19.434Z,29.65
2023-06-05T10:56:19.398Z,30.00
2023-06-05T10:57:19.379Z,30.27
2023-06-05T10:58:19.565Z,30.62
2023-06-05T10:59:19.683Z,30.99
2023-06-05T11:00:19.326Z,31.09
2023-06-05T11:01:19.527Z,30.91
2023-06-05T11:02:19.283Z,30.93
2023-06-05T11:03:19.367Z,31.09
2023-06-05T11:04:19.381Z,31.35
2023-06-05T11:05:19.274Z,31.62
2023-06-05T11:06:19.262Z,31.26
2023-06-05T11:07:19.244Z,30.50
2023-06-05T11:08:19.204Z,30.11
2023-06-05T11:09:19.250Z,29.99
2023-06-05T11:10:19.233Z,29.55
2023-06-05T11:11:19.225Z,29.43
2023-06-05T11:12:19.181Z,29.57
2023-06-05T11:13:19.174Z,29.78
2023-06-05T11:14:19.157Z,30.14
2023-06-05T11:15:19.154Z,30.53
2023-06-05T11:16:19.173Z,30.68
2023-06-05T11:17:21.736Z,30.80
2023-06-05T11:18:19.080Z,31.05
2023-06-05T11:19:19.121Z,31.36
2023-06-05T11:20:19.070Z,31.60
2023-06-05T11:21:19.067Z,31.84
2023-06-05T11:22:19.081Z,31.39
2023-06-05T11:23:19.049Z,29.84
2023-06-05T11:24:19.003Z,28.93
2023-06-05T11:25:19.038Z,28.16
2023-06-05T11:26:19.021Z,28.19
2023-06-05T11:27:18.980Z,28.72
2023-06-05T11:28:18.980Z,29.37
2023-06-05T11:29:19.002Z,29.55
2023-06-05T11:30:28.044Z,30.03
2023-06-05T11:31:19.999Z,30.36
2023-06-05T11:32:18.989Z,30.37
2023-06-05T11:33:19.487Z,30.50
2023-06-05T11:34:18.915Z,30.91
2023-06-05T11:35:18.882Z,31.48
2023-06-05T11:36:18.848Z,31.77
2023-06-05T11:37:18.875Z,32.05
2023-06-05T11:38:23.227Z,32.17
2023-06-05T11:39:19.885Z,30.76
2023-06-05T11:40:18.807Z,29.50
2023-06-05T11:41:19.489Z,28.56
2023-06-05T11:42:18.755Z,29.07
2023-06-05T11:43:18.808Z,29.45
2023-06-05T11:44:18.762Z,29.86
2023-06-05T11:45:18.772Z,30.31
2023-06-05T11:46:18.765Z,30.89
2023-06-05T11:47:18.716Z,31.23
2023-06-05T11:48:18.693Z,30.26
2023-06-05T11:49:18.716Z,30.16
2023-06-05T11:50:18.659Z,30.46
2023-06-05T11:51:18.718Z,30.43
2023-06-05T11:52:18.654Z,30.50
2023-06-05T11:53:21.330Z,30.90
2023-06-05T11:54:18.627Z,31.26
2023-06-05T11:55:18.620Z,31.73
2023-06-05T11:56:18.617Z,32.02
2023-06-05T11:57:18.731Z,32.33
2023-06-05T11:58:18.573Z,31.64
2023-06-05T11:59:18.566Z,31.62
2023-06-05T12:00:18.525Z,31.65
2023-06-05T12:01:18.694Z,31.68
2023-06-05T12:02:18.594Z,31.84
2023-06-05T12:03:18.800Z,32.10
2023-06-05T12:04:18.503Z,32.47
2023-06-05T12:05:18.482Z,32.89
2023-06-05T12:06:18.468Z,33.19
2023-06-05T12:07:18.453Z,33.27
2023-06-05T12:08:18.421Z,31.96
2023-06-05T12:09:18.505Z,30.96
2023-06-05T12:10:18.393Z,30.69
2023-06-05T12:11:18.441Z,31.27
2023-06-05T12:12:18.404Z,31.42
2023-06-05T12:13:18.377Z,31.95
2023-06-05T12:14:18.364Z,32.55
2023-06-05T12:15:18.478Z,32.92
2023-06-05T12:16:18.359Z,33.26
2023-06-05T12:17:18.363Z,33.03
2023-06-05T12:18:18.287Z,33.10
2023-06-05T12:19:18.403Z,32.21
2023-06-05T12:20:18.284Z,31.96
2023-06-05T12:21:18.307Z,31.50
2023-06-05T12:22:18.310Z,31.24
2023-06-05T12:23:18.250Z,31.08
2023-06-05T12:27:59.997Z,31.42
2023-06-05T12:28:04.766Z,31.75
2023-06-05T12:29:04.632Z,31.67
2023-06-05T12:30:04.673Z,31.17
2023-06-05T12:31:05.646Z,30.11
2023-06-05T12:32:04.729Z,29.38
2023-06-05T12:33:04.640Z,29.26
2023-06-05T12:34:04.620Z,29.33
2023-06-05T12:35:07.804Z,29.86
2023-06-05T12:36:04.577Z,30.67
2023-06-05T12:37:04.563Z,31.04
2023-06-05T12:38:04.542Z,31.21
2023-06-05T12:39:04.536Z,31.35
2023-06-05T12:40:04.543Z,31.91
2023-06-05T12:41:05.527Z,32.27
2023-06-05T12:42:05.212Z,31.42
2023-06-05T12:43:04.490Z,29.92
2023-06-05T12:44:04.464Z,29.89
2023-06-05T12:45:04.487Z,30.15
2023-06-05T12:46:04.441Z,30.07
2023-06-05T12:47:04.450Z,29.18
2023-06-05T12:48:04.488Z,29.89
2023-06-05T12:49:17.870Z,30.21
2023-06-05T12:50:04.442Z,30.62
2023-06-05T12:51:04.397Z,30.96
2023-06-05T12:52:04.390Z,30.31
2023-06-05T12:53:04.326Z,30.56
2023-06-05T12:54:04.365Z,29.53
2023-06-05T12:55:20.272Z,29.79
2023-06-05T12:56:04.314Z,30.75
2023-06-05T12:57:04.328Z,31.76
2023-06-05T12:58:04.290Z,32.39
2023-06-05T12:59:04.250Z,32.84
2023-06-05T13:00:04.289Z,32.95
2023-06-05T13:01:05.188Z,32.70
2023-06-05T13:02:04.298Z,32.47
2023-06-05T13:03:04.293Z,32.84
2023-06-05T13:04:04.255Z,33.48